sensor_id;sensor_type;location;lat;lon;timestamp;pressure;altitude;pressure_sealevel;temperature;humidity
63819;BME280;49970;54.976;73.248;2023-10-09T00:00:14;99751.22;;;10.73;69.62
63819;BME280;49970;54.976;73.248;2023-10-09T00:03:01;99739.19;;;10.69;70.17
63819;BME280;49970;54.976;73.248;2023-10-09T00:05:30;99738.50;;;10.67;69.81
63819;BME280;49970;54.976;73.248;2023-10-09T00:08:16;99737.06;;;10.63;69.91
63819;BME280;49970;54.976;73.248;2023-10-09T00:10:49;99745.25;;;10.60;70.06
63819;BME280;49970;54.976;73.248;2023-10-09T00:13:25;99728.38;;;10.61;70.30
63819;BME280;49970;54.976;73.248;2023-10-09T00:16:04;99752.72;;;10.66;70.66
63819;BME280;49970;54.976;73.248;2023-10-09T00:18:41;99745.09;;;10.61;70.93
63819;BME280;49970;54.976;73.248;2023-10-09T00:21:17;99741.84;;;10.69;70.99
63819;BME280;49970;54.976;73.248;2023-10-09T00:23:51;99744.41;;;10.70;70.96
63819;BME280;49970;54.976;73.248;2023-10-09T00:26:27;99738.97;;;10.72;70.81
63819;BME280;49970;54.976;73.248;2023-10-09T00:29:00;99739.09;;;10.70;70.81
63819;BME280;49970;54.976;73.248;2023-10-09T00:31:33;99752.22;;;10.72;70.99
63819;BME280;49970;54.976;73.248;2023-10-09T00:34:04;99753.03;;;10.72;71.42
63819;BME280;49970;54.976;73.248;2023-10-09T00:36:32;99753.03;;;10.72;71.61
63819;BME280;49970;54.976;73.248;2023-10-09T00:39:18;99763.78;;;10.71;71.59
63819;BME280;49970;54.976;73.248;2023-10-09T00:42:07;99739.19;;;10.69;71.29
63819;BME280;49970;54.976;73.248;2023-10-09T00:44:39;99741.53;;;10.62;71.76
63819;BME280;49970;54.976;73.248;2023-10-09T00:47:14;99742.13;;;10.66;71.65
63819;BME280;49970;54.976;73.248;2023-10-09T00:50:08;99729.34;;;10.60;72.53
63819;BME280;49970;54.976;73.248;2023-10-09T00:52:57;99731.75;;;10.63;72.33
63819;BME280;49970;54.976;73.248;2023-10-09T00:55:32;99724.78;;;10.62;72.06
63819;BME280;49970;54.976;73.248;2023-10-09T00:58:09;99736.94;;;10.64;72.79
63819;BME280;49970;54.976;73.248;2023-10-09T01:00:43;99740.69;;;10.62;72.50
63819;BME280;49970;54.976;73.248;2023-10-09T01:03:15;99711.56;;;10.51;72.17
63819;BME280;49970;54.976;73.248;2023-10-09T01:05:54;99742.81;;;10.68;72.64
63819;BME280;49970;54.976;73.248;2023-10-09T01:08:28;99735.47;;;10.71;72.76
63819;BME280;49970;54.976;73.248;2023-10-09T01:11:13;99732.09;;;10.69;72.03
63819;BME280;49970;54.976;73.248;2023-10-09T01:13:57;99728.38;;;10.72;72.82
63819;BME280;49970;54.976;73.248;2023-10-09T01:16:51;99731.84;;;10.72;72.09
63819;BME280;49970;54.976;73.248;2023-10-09T01:19:22;99737.16;;;10.72;72.63
63819;BME280;49970;54.976;73.248;2023-10-09T01:21:52;99733.53;;;10.73;72.94
63819;BME280;49970;54.976;73.248;2023-10-09T01:24:23;99727.16;;;10.76;72.67
63819;BME280;49970;54.976;73.248;2023-10-09T01:26:55;99724.88;;;10.71;72.79
63819;BME280;49970;54.976;73.248;2023-10-09T01:29:27;99720.28;;;10.73;72.51
63819;BME280;49970;54.976;73.248;2023-10-09T01:32:11;99712.59;;;10.70;72.80
63819;BME280;49970;54.976;73.248;2023-10-09T01:34:45;99725.59;;;10.73;72.60
63819;BME280;49970;54.976;73.248;2023-10-09T01:37:19;99718.16;;;10.67;72.67
63819;BME280;49970;54.976;73.248;2023-10-09T01:39:46;99742.31;;;10.74;72.51
63819;BME280;49970;54.976;73.248;2023-10-09T01:42:14;99737.88;;;10.75;72.93
63819;BME280;49970;54.976;73.248;2023-10-09T01:45:01;99742.22;;;10.76;72.70
63819;BME280;49970;54.976;73.248;2023-10-09T01:47:44;99745.84;;;10.75;72.94
63819;BME280;49970;54.976;73.248;2023-10-09T01:50:17;99755.44;;;10.76;72.48
63819;BME280;49970;54.976;73.248;2023-10-09T01:52:53;99744.13;;;10.73;72.97
63819;BME280;49970;54.976;73.248;2023-10-09T01:55:20;99743.03;;;10.76;73.01
63819;BME280;49970;54.976;73.248;2023-10-09T01:58:00;99729.66;;;10.78;72.99
63819;BME280;49970;54.976;73.248;2023-10-09T02:00:34;99726.31;;;10.76;72.86
63819;BME280;49970;54.976;73.248;2023-10-09T02:03:08;99719.22;;;10.76;72.85
63819;BME280;49970;54.976;73.248;2023-10-09T02:05:39;99727.41;;;10.73;72.95
63819;BME280;49970;54.976;73.248;2023-10-09T02:08:05;99734.84;;;10.79;73.12
63819;BME280;49970;54.976;73.248;2023-10-09T02:10:32;99739.19;;;10.80;72.78
63819;BME280;49970;54.976;73.248;2023-10-09T02:13:00;99732.44;;;10.76;72.48
63819;BME280;49970;54.976;73.248;2023-10-09T02:15:33;99707.19;;;10.61;72.43
63819;BME280;49970;54.976;73.248;2023-10-09T02:18:09;99750.75;;;10.79;72.66
63819;BME280;49970;54.976;73.248;2023-10-09T02:20:46;99743.19;;;10.75;72.12
63819;BME280;49970;54.976;73.248;2023-10-09T02:23:14;99746.16;;;10.81;72.30
63819;BME280;49970;54.976;73.248;2023-10-09T02:25:43;99751.69;;;10.78;72.38
63819;BME280;49970;54.976;73.248;2023-10-09T02:28:10;99755.78;;;10.82;72.61
63819;BME280;49970;54.976;73.248;2023-10-09T02:30:45;99761.81;;;10.84;72.51
63819;BME280;49970;54.976;73.248;2023-10-09T02:33:16;99757.50;;;10.83;72.22
63819;BME280;49970;54.976;73.248;2023-10-09T02:35:54;99753.41;;;10.79;72.49
63819;BME280;49970;54.976;73.248;2023-10-09T02:38:21;99758.69;;;10.79;71.95
63819;BME280;49970;54.976;73.248;2023-10-09T02:40:52;99764.59;;;10.83;72.29
63819;BME280;49970;54.976;73.248;2023-10-09T02:43:32;99755.69;;;10.84;72.07
63819;BME280;49970;54.976;73.248;2023-10-09T02:46:14;99770.47;;;10.86;72.35
63819;BME280;49970;54.976;73.248;2023-10-09T02:48:47;99771.44;;;10.85;71.92
63819;BME280;49970;54.976;73.248;2023-10-09T02:51:18;99761.69;;;10.86;71.90
63819;BME280;49970;54.976;73.248;2023-10-09T02:54:01;99760.75;;;10.87;71.97
63819;BME280;49970;54.976;73.248;2023-10-09T02:56:45;99732.69;;;10.73;71.61
63819;BME280;49970;54.976;73.248;2023-10-09T02:59:14;99743.13;;;10.86;71.94
63819;BME280;49970;54.976;73.248;2023-10-09T03:01:41;99754.31;;;10.89;72.30
63819;BME280;49970;54.976;73.248;2023-10-09T03:04:08;99756.97;;;10.89;71.96
63819;BME280;49970;54.976;73.248;2023-10-09T03:06:37;99772.50;;;10.94;71.63
63819;BME280;49970;54.976;73.248;2023-10-09T03:09:10;99752.41;;;10.91;71.60
63819;BME280;49970;54.976;73.248;2023-10-09T03:11:47;99741.09;;;10.89;71.98
63819;BME280;49970;54.976;73.248;2023-10-09T03:14:20;99747.44;;;10.98;71.82
63819;BME280;49970;54.976;73.248;2023-10-09T03:16:49;99749.00;;;11.01;71.89
63819;BME280;49970;54.976;73.248;2023-10-09T03:19:15;99755.50;;;11.08;71.41
63819;BME280;49970;54.976;73.248;2023-10-09T03:21:42;99761.75;;;11.07;72.03
63819;BME280;49970;54.976;73.248;2023-10-09T03:24:09;99749.81;;;11.12;71.54
63819;BME280;49970;54.976;73.248;2023-10-09T03:26:37;99747.88;;;11.14;71.73
63819;BME280;49970;54.976;73.248;2023-10-09T03:29:03;99763.28;;;11.20;71.21
63819;BME280;49970;54.976;73.248;2023-10-09T03:31:36;99748.44;;;11.18;71.71
63819;BME280;49970;54.976;73.248;2023-10-09T03:34:03;99767.09;;;11.28;71.03
63819;BME280;49970;54.976;73.248;2023-10-09T03:36:29;99749.84;;;11.33;71.52
63819;BME280;49970;54.976;73.248;2023-10-09T03:38:57;99764.53;;;11.37;70.99
63819;BME280;49970;54.976;73.248;2023-10-09T03:41:25;99748.47;;;11.39;71.22
63819;BME280;49970;54.976;73.248;2023-10-09T03:43:55;99763.16;;;11.43;71.22
63819;BME280;49970;54.976;73.248;2023-10-09T03:46:21;99768.91;;;11.48;71.52
63819;BME280;49970;54.976;73.248;2023-10-09T03:48:48;99773.00;;;11.52;70.86
63819;BME280;49970;54.976;73.248;2023-10-09T03:51:15;99777.22;;;11.55;71.07
63819;BME280;49970;54.976;73.248;2023-10-09T03:53:48;99767.19;;;11.58;70.99
63819;BME280;49970;54.976;73.248;2023-10-09T03:56:15;99763.97;;;11.55;70.97
63819;BME280;49970;54.976;73.248;2023-10-09T03:58:45;99773.78;;;11.64;70.97
63819;BME280;49970;54.976;73.248;2023-10-09T04:01:14;99771.72;;;11.67;70.96
63819;BME280;49970;54.976;73.248;2023-10-09T04:04:03;99768.09;;;11.68;70.94
63819;BME280;49970;54.976;73.248;2023-10-09T04:06:31;99770.34;;;11.73;70.78
63819;BME280;49970;54.976;73.248;2023-10-09T04:09:02;99762.97;;;11.77;70.80
63819;BME280;49970;54.976;73.248;2023-10-09T04:11:50;99765.25;;;11.81;70.66
63819;BME280;49970;54.976;73.248;2023-10-09T04:14:42;99763.91;;;11.87;70.62
63819;BME280;49970;54.976;73.248;2023-10-09T04:17:16;99763.25;;;11.94;70.60
63819;BME280;49970;54.976;73.248;2023-10-09T04:19:49;99763.44;;;12.03;70.36
63819;BME280;49970;54.976;73.248;2023-10-09T04:22:54;99757.22;;;12.13;70.25
63819;BME280;49970;54.976;73.248;2023-10-09T04:25:31;99745.22;;;12.19;70.34
63819;BME280;49970;54.976;73.248;2023-10-09T04:28:12;99745.41;;;12.27;69.95
63819;BME280;49970;54.976;73.248;2023-10-09T04:30:41;99753.69;;;12.34;69.86
63819;BME280;49970;54.976;73.248;2023-10-09T04:33:12;99756.03;;;12.37;69.97
63819;BME280;49970;54.976;73.248;2023-10-09T04:36:04;99750.06;;;12.44;70.33
63819;BME280;49970;54.976;73.248;2023-10-09T04:38:57;99769.50;;;12.45;70.23
63819;BME280;49970;54.976;73.248;2023-10-09T04:41:32;99756.94;;;12.47;70.21
63819;BME280;49970;54.976;73.248;2023-10-09T04:44:00;99747.84;;;12.50;70.21
63819;BME280;49970;54.976;73.248;2023-10-09T04:46:51;99749.97;;;12.56;70.81
63819;BME280;49970;54.976;73.248;2023-10-09T04:49:37;99750.41;;;12.61;70.37
63819;BME280;49970;54.976;73.248;2023-10-09T04:52:39;99749.00;;;12.66;70.40
63819;BME280;49970;54.976;73.248;2023-10-09T04:55:23;99752.13;;;12.71;70.17
63819;BME280;49970;54.976;73.248;2023-10-09T04:57:53;99769.47;;;12.76;70.38
63819;BME280;49970;54.976;73.248;2023-10-09T05:00:34;99767.09;;;12.82;70.22
63819;BME280;49970;54.976;73.248;2023-10-09T05:03:02;99754.53;;;12.84;70.15
63819;BME280;49970;54.976;73.248;2023-10-09T05:05:39;99761.09;;;12.90;70.20
63819;BME280;49970;54.976;73.248;2023-10-09T05:08:09;99762.50;;;12.94;70.13
63819;BME280;49970;54.976;73.248;2023-10-09T05:10:51;99760.84;;;13.03;70.35
63819;BME280;49970;54.976;73.248;2023-10-09T05:13:34;99777.91;;;13.10;70.31
63819;BME280;49970;54.976;73.248;2023-10-09T05:16:17;99765.03;;;13.15;70.36
63819;BME280;49970;54.976;73.248;2023-10-09T05:18:56;99747.56;;;13.22;70.33
63819;BME280;49970;54.976;73.248;2023-10-09T05:21:23;99766.63;;;13.27;70.22
63819;BME280;49970;54.976;73.248;2023-10-09T05:24:01;99763.41;;;13.24;70.58
63819;BME280;49970;54.976;73.248;2023-10-09T05:29:19;99763.53;;;13.32;70.95
63819;BME280;49970;54.976;73.248;2023-10-09T05:31:49;99758.94;;;13.34;71.03
63819;BME280;49970;54.976;73.248;2023-10-09T05:34:23;99760.88;;;13.32;71.29
63819;BME280;49970;54.976;73.248;2023-10-09T05:37:06;99762.56;;;13.23;71.68
63819;BME280;49970;54.976;73.248;2023-10-09T05:39:52;99748.81;;;13.18;71.79
63819;BME280;49970;54.976;73.248;2023-10-09T05:42:29;99771.25;;;13.25;71.44
63819;BME280;49970;54.976;73.248;2023-10-09T05:45:08;99772.38;;;13.23;71.43
63819;BME280;49970;54.976;73.248;2023-10-09T05:47:51;99779.47;;;13.22;71.54
63819;BME280;49970;54.976;73.248;2023-10-09T05:50:43;99774.16;;;13.22;71.43
63819;BME280;49970;54.976;73.248;2023-10-09T05:53:28;99775.25;;;13.19;71.81
63819;BME280;49970;54.976;73.248;2023-10-09T05:56:12;99775.53;;;13.16;71.87
63819;BME280;49970;54.976;73.248;2023-10-09T05:58:57;99793.03;;;13.19;72.39
63819;BME280;49970;54.976;73.248;2023-10-09T06:01:29;99786.31;;;13.15;72.72
63819;BME280;49970;54.976;73.248;2023-10-09T06:04:14;99792.75;;;13.12;73.42
63819;BME280;49970;54.976;73.248;2023-10-09T06:06:45;99790.38;;;13.09;73.49
63819;BME280;49970;54.976;73.248;2023-10-09T06:09:13;99791.34;;;13.08;73.65
63819;BME280;49970;54.976;73.248;2023-10-09T06:11:40;99801.28;;;13.06;74.30
63819;BME280;49970;54.976;73.248;2023-10-09T06:14:07;99794.56;;;13.02;74.92
63819;BME280;49970;54.976;73.248;2023-10-09T06:16:37;99797.06;;;13.04;74.94
63819;BME280;49970;54.976;73.248;2023-10-09T06:19:26;99809.66;;;13.02;75.50
63819;BME280;49970;54.976;73.248;2023-10-09T06:21:59;99806.03;;;13.03;76.34
63819;BME280;49970;54.976;73.248;2023-10-09T06:24:39;99791.59;;;12.95;77.16
63819;BME280;49970;54.976;73.248;2023-10-09T06:27:09;99801.28;;;12.96;77.54
63819;BME280;49970;54.976;73.248;2023-10-09T06:29:35;99803.34;;;12.93;77.93
63819;BME280;49970;54.976;73.248;2023-10-09T06:32:03;99793.97;;;12.89;78.28
63819;BME280;49970;54.976;73.248;2023-10-09T06:34:45;99798.88;;;12.93;79.07
63819;BME280;49970;54.976;73.248;2023-10-09T06:37:12;99802.53;;;12.92;78.70
63819;BME280;49970;54.976;73.248;2023-10-09T06:39:53;99806.13;;;12.91;79.02
63819;BME280;49970;54.976;73.248;2023-10-09T06:42:26;99796.47;;;12.90;78.38
63819;BME280;49970;54.976;73.248;2023-10-09T06:45:01;99798.31;;;12.90;78.38
63819;BME280;49970;54.976;73.248;2023-10-09T06:47:30;99805.28;;;12.91;78.38
63819;BME280;49970;54.976;73.248;2023-10-09T06:50:02;99766.25;;;12.72;78.26
63819;BME280;49970;54.976;73.248;2023-10-09T06:52:51;99783.63;;;12.95;78.55
63819;BME280;49970;54.976;73.248;2023-10-09T06:55:27;99800.84;;;13.01;78.89
63819;BME280;49970;54.976;73.248;2023-10-09T06:58:02;99806.75;;;13.05;78.82
63819;BME280;49970;54.976;73.248;2023-10-09T07:00:39;99781.53;;;12.99;78.73
63819;BME280;49970;54.976;73.248;2023-10-09T07:03:30;99799.47;;;13.07;78.50
63819;BME280;49970;54.976;73.248;2023-10-09T07:08:38;99811.75;;;13.08;78.47
63819;BME280;49970;54.976;73.248;2023-10-09T07:11:04;99810.50;;;13.12;78.74
63819;BME280;49970;54.976;73.248;2023-10-09T07:13:49;99813.47;;;13.09;79.07
63819;BME280;49970;54.976;73.248;2023-10-09T07:16:22;99816.53;;;13.04;79.72
63819;BME280;49970;54.976;73.248;2023-10-09T07:19:05;99821.56;;;12.98;80.01
63819;BME280;49970;54.976;73.248;2023-10-09T07:21:50;99826.28;;;12.94;80.15
63819;BME280;49970;54.976;73.248;2023-10-09T07:24:20;99834.41;;;12.92;79.92
63819;BME280;49970;54.976;73.248;2023-10-09T07:26:51;99831.47;;;12.95;79.93
63819;BME280;49970;54.976;73.248;2023-10-09T07:29:20;99824.88;;;12.90;79.83
63819;BME280;49970;54.976;73.248;2023-10-09T07:31:50;99822.22;;;12.90;80.02
63819;BME280;49970;54.976;73.248;2023-10-09T07:34:24;99838.59;;;12.95;80.67
63819;BME280;49970;54.976;73.248;2023-10-09T07:37:23;99832.34;;;12.96;80.97
63819;BME280;49970;54.976;73.248;2023-10-09T07:39:50;99826.03;;;12.97;81.04
63819;BME280;49970;54.976;73.248;2023-10-09T07:42:27;99836.66;;;12.97;80.84
63819;BME280;49970;54.976;73.248;2023-10-09T07:45:12;99833.59;;;13.02;80.35
63819;BME280;49970;54.976;73.248;2023-10-09T07:47:59;99834.59;;;13.01;80.60
63819;BME280;49970;54.976;73.248;2023-10-09T07:50:34;99836.94;;;13.04;80.53
63819;BME280;49970;54.976;73.248;2023-10-09T07:53:15;99833.03;;;13.08;80.39
63819;BME280;49970;54.976;73.248;2023-10-09T07:55:46;99825.91;;;13.08;79.94
63819;BME280;49970;54.976;73.248;2023-10-09T07:58:24;99832.25;;;13.17;79.57
63819;BME280;49970;54.976;73.248;2023-10-09T08:00:55;99827.34;;;13.22;79.35
63819;BME280;49970;54.976;73.248;2023-10-09T08:03:24;99826.25;;;13.25;78.91
63819;BME280;49970;54.976;73.248;2023-10-09T08:05:54;99819.97;;;13.26;78.41
63819;BME280;49970;54.976;73.248;2023-10-09T08:08:33;99819.81;;;13.27;78.42
63819;BME280;49970;54.976;73.248;2023-10-09T08:10:59;99819.66;;;13.29;78.22
63819;BME280;49970;54.976;73.248;2023-10-09T08:13:44;99822.22;;;13.30;78.24
63819;BME280;49970;54.976;73.248;2023-10-09T08:16:25;99828.38;;;13.31;78.21
63819;BME280;49970;54.976;73.248;2023-10-09T08:19:05;99832.00;;;13.39;78.11
63819;BME280;49970;54.976;73.248;2023-10-09T08:21:59;99822.78;;;13.43;77.93
63819;BME280;49970;54.976;73.248;2023-10-09T08:24:48;99826.84;;;13.48;77.66
63819;BME280;49970;54.976;73.248;2023-10-09T08:27:24;99828.94;;;13.54;77.43
63819;BME280;49970;54.976;73.248;2023-10-09T08:30:14;99805.69;;;13.46;77.53
63819;BME280;49970;54.976;73.248;2023-10-09T08:32:51;99816.59;;;13.62;77.30
63819;BME280;49970;54.976;73.248;2023-10-09T08:35:45;99815.06;;;13.69;77.44
63819;BME280;49970;54.976;73.248;2023-10-09T08:38:15;99814.63;;;13.74;76.86
63819;BME280;49970;54.976;73.248;2023-10-09T08:40:50;99820.53;;;13.78;76.91
63819;BME280;49970;54.976;73.248;2023-10-09T08:43:18;99814.91;;;13.81;76.91
63819;BME280;49970;54.976;73.248;2023-10-09T08:45:47;99822.75;;;13.82;77.01
63819;BME280;49970;54.976;73.248;2023-10-09T08:48:14;99823.31;;;13.86;76.94
63819;BME280;49970;54.976;73.248;2023-10-09T08:50:42;99827.53;;;13.88;76.65
63819;BME280;49970;54.976;73.248;2023-10-09T08:53:12;99814.66;;;13.84;76.67
63819;BME280;49970;54.976;73.248;2023-10-09T08:55:39;99837.88;;;13.91;76.36
63819;BME280;49970;54.976;73.248;2023-10-09T08:58:07;99836.19;;;13.90;76.08
63819;BME280;49970;54.976;73.248;2023-10-09T09:00:53;99840.41;;;13.93;76.76
63819;BME280;49970;54.976;73.248;2023-10-09T09:03:21;99831.44;;;13.94;76.95
63819;BME280;49970;54.976;73.248;2023-10-09T09:05:58;99834.66;;;13.98;76.95
63819;BME280;49970;54.976;73.248;2023-10-09T09:08:28;99829.06;;;14.01;76.61
63819;BME280;49970;54.976;73.248;2023-10-09T09:11:01;99836.06;;;14.02;76.96
63819;BME280;49970;54.976;73.248;2023-10-09T09:13:47;99832.81;;;14.08;76.92
63819;BME280;49970;54.976;73.248;2023-10-09T09:16:19;99831.53;;;14.12;76.89
63819;BME280;49970;54.976;73.248;2023-10-09T09:18:54;99839.25;;;14.15;76.50
63819;BME280;49970;54.976;73.248;2023-10-09T09:21:31;99836.97;;;14.20;76.10
63819;BME280;49970;54.976;73.248;2023-10-09T09:24:04;99830.53;;;14.23;76.16
63819;BME280;49970;54.976;73.248;2023-10-09T09:26:52;99853.25;;;14.27;76.11
63819;BME280;49970;54.976;73.248;2023-10-09T09:29:39;99844.97;;;14.30;76.14
63819;BME280;49970;54.976;73.248;2023-10-09T09:32:07;99842.16;;;14.31;75.96
63819;BME280;49970;54.976;73.248;2023-10-09T09:34:45;99847.63;;;14.30;75.71
63819;BME280;49970;54.976;73.248;2023-10-09T09:37:23;99846.78;;;14.29;75.67
63819;BME280;49970;54.976;73.248;2023-10-09T09:40:05;99847.75;;;14.28;75.96
63819;BME280;49970;54.976;73.248;2023-10-09T09:42:44;99861.91;;;14.29;75.93
63819;BME280;49970;54.976;73.248;2023-10-09T09:45:14;99853.25;;;14.27;76.17
63819;BME280;49970;54.976;73.248;2023-10-09T09:47:45;99844.84;;;14.22;76.20
63819;BME280;49970;54.976;73.248;2023-10-09T09:50:17;99850.31;;;14.20;76.37
63819;BME280;49970;54.976;73.248;2023-10-09T09:52:55;99852.69;;;14.23;76.77
63819;BME280;49970;54.976;73.248;2023-10-09T09:55:34;99852.97;;;14.20;77.08
63819;BME280;49970;54.976;73.248;2023-10-09T09:58:13;99852.28;;;14.18;77.11
63819;BME280;49970;54.976;73.248;2023-10-09T10:00:47;99851.28;;;14.19;76.99
63819;BME280;49970;54.976;73.248;2023-10-09T10:03:24;99847.91;;;14.17;77.05
63819;BME280;49970;54.976;73.248;2023-10-09T10:05:53;99852.56;;;14.15;77.52
63819;BME280;49970;54.976;73.248;2023-10-09T10:08:23;99851.88;;;14.13;76.98
63819;BME280;49970;54.976;73.248;2023-10-09T10:10:59;99861.94;;;14.19;77.04
63819;BME280;49970;54.976;73.248;2023-10-09T10:16:11;99842.75;;;14.15;77.93
63819;BME280;49970;54.976;73.248;2023-10-09T10:19:06;99851.28;;;14.19;77.84
63819;BME280;49970;54.976;73.248;2023-10-09T10:21:35;99845.81;;;14.20;77.77
63819;BME280;49970;54.976;73.248;2023-10-09T10:27:26;99846.56;;;14.13;79.53
63819;BME280;49970;54.976;73.248;2023-10-09T10:32:58;99856.91;;;14.06;80.06
63819;BME280;49970;54.976;73.248;2023-10-09T10:35:45;99870.66;;;14.02;79.80
63819;BME280;49970;54.976;73.248;2023-10-09T10:38:33;99856.63;;;14.00;79.83
63819;BME280;49970;54.976;73.248;2023-10-09T10:41:14;99858.75;;;13.96;80.59
63819;BME280;49970;54.976;73.248;2023-10-09T10:43:46;99864.50;;;13.91;80.65
63819;BME280;49970;54.976;73.248;2023-10-09T10:46:13;99868.56;;;13.86;80.87
63819;BME280;49970;54.976;73.248;2023-10-09T10:49:01;99870.66;;;13.82;81.99
63819;BME280;49970;54.976;73.248;2023-10-09T10:51:37;99872.91;;;13.77;82.39
63819;BME280;49970;54.976;73.248;2023-10-09T10:54:07;99872.94;;;13.67;82.83
63819;BME280;49970;54.976;73.248;2023-10-09T11:00:40;99880.19;;;13.56;83.16
63819;BME280;49970;54.976;73.248;2023-10-09T11:04:11;99878.78;;;13.52;82.98
63819;BME280;49970;54.976;73.248;2023-10-09T11:07:22;99875.72;;;13.47;83.09
63819;BME280;49970;54.976;73.248;2023-10-09T11:09:57;99889.97;;;13.45;83.44
63819;BME280;49970;54.976;73.248;2023-10-09T11:15:07;99878.22;;;13.38;83.69
63819;BME280;49970;54.976;73.248;2023-10-09T11:20:35;99886.78;;;13.42;83.82
63819;BME280;49970;54.976;73.248;2023-10-09T11:23:02;99884.22;;;13.40;83.90
63819;BME280;49970;54.976;73.248;2023-10-09T11:25:45;99860.28;;;13.31;84.00
63819;BME280;49970;54.976;73.248;2023-10-09T11:28:33;99877.50;;;13.36;84.17
63819;BME280;49970;54.976;73.248;2023-10-09T11:31:15;99870.66;;;13.34;84.17
63819;BME280;49970;54.976;73.248;2023-10-09T11:33:48;99881.00;;;13.37;84.50
63819;BME280;49970;54.976;73.248;2023-10-09T11:36:34;99863.50;;;13.34;84.59
63819;BME280;49970;54.976;73.248;2023-10-09T11:40:29;99871.03;;;13.29;84.05
63819;BME280;49970;54.976;73.248;2023-10-09T11:43:13;99868.53;;;13.28;84.28
63819;BME280;49970;54.976;73.248;2023-10-09T11:46:09;99882.66;;;13.28;84.52
63819;BME280;49970;54.976;73.248;2023-10-09T11:49:46;99880.84;;;13.29;84.53
63819;BME280;49970;54.976;73.248;2023-10-09T11:52:13;99863.44;;;13.15;84.11
63819;BME280;49970;54.976;73.248;2023-10-09T11:54:39;99882.41;;;13.31;84.03
63819;BME280;49970;54.976;73.248;2023-10-09T11:57:05;99885.75;;;13.33;84.20
63819;BME280;49970;54.976;73.248;2023-10-09T11:59:32;99881.16;;;13.35;83.97
63819;BME280;49970;54.976;73.248;2023-10-09T12:02:05;99872.44;;;13.33;83.89
63819;BME280;49970;54.976;73.248;2023-10-09T12:04:36;99878.22;;;13.38;83.75
63819;BME280;49970;54.976;73.248;2023-10-09T12:07:02;99871.75;;;13.41;83.55
63819;BME280;49970;54.976;73.248;2023-10-09T12:09:48;99870.94;;;13.40;82.92
63819;BME280;49970;54.976;73.248;2023-10-09T12:12:14;99862.25;;;13.38;82.57
63819;BME280;49970;54.976;73.248;2023-10-09T12:14:41;99866.91;;;13.46;82.21
63819;BME280;49970;54.976;73.248;2023-10-09T12:17:08;99880.72;;;13.50;82.05
63819;BME280;49970;54.976;73.248;2023-10-09T12:19:54;99867.31;;;13.51;81.59
63819;BME280;49970;54.976;73.248;2023-10-09T12:23:05;99860.00;;;13.53;81.34
63819;BME280;49970;54.976;73.248;2023-10-09T12:25:52;99863.41;;;13.55;80.76
63819;BME280;49970;54.976;73.248;2023-10-09T12:28:23;99865.22;;;13.55;80.66
63819;BME280;49970;54.976;73.248;2023-10-09T12:30:49;99860.44;;;13.58;80.34
63819;BME280;49970;54.976;73.248;2023-10-09T12:33:19;99861.16;;;13.60;80.07
63819;BME280;49970;54.976;73.248;2023-10-09T12:35:54;99862.69;;;13.63;80.14
63819;BME280;49970;54.976;73.248;2023-10-09T12:38:38;99851.06;;;13.64;79.65
63819;BME280;49970;54.976;73.248;2023-10-09T12:41:12;99878.94;;;13.69;79.13
63819;BME280;49970;54.976;73.248;2023-10-09T12:43:52;99861.44;;;13.67;79.00
63819;BME280;49970;54.976;73.248;2023-10-09T12:46:18;99873.06;;;13.76;78.58
63819;BME280;49970;54.976;73.248;2023-10-09T12:48:52;99859.75;;;13.76;78.13
63819;BME280;49970;54.976;73.248;2023-10-09T12:51:21;99873.22;;;13.84;77.46
63819;BME280;49970;54.976;73.248;2023-10-09T12:53:51;99872.78;;;13.88;77.19
63819;BME280;49970;54.976;73.248;2023-10-09T12:56:23;99874.31;;;13.91;76.69
63819;BME280;49970;54.976;73.248;2023-10-09T12:59:01;99863.81;;;13.89;76.41
63819;BME280;49970;54.976;73.248;2023-10-09T13:01:31;99864.09;;;13.86;75.85
63819;BME280;49970;54.976;73.248;2023-10-09T13:04:12;99891.81;;;14.03;75.07
63819;BME280;49970;54.976;73.248;2023-10-09T13:06:45;99895.31;;;14.04;75.07
63819;BME280;49970;54.976;73.248;2023-10-09T13:09:27;99910.34;;;14.05;74.85
63819;BME280;49970;54.976;73.248;2023-10-09T13:12:22;99904.28;;;14.03;75.02
63819;BME280;49970;54.976;73.248;2023-10-09T13:14:49;99901.06;;;13.99;75.35
63819;BME280;49970;54.976;73.248;2023-10-09T13:17:15;99903.03;;;13.97;75.45
63819;BME280;49970;54.976;73.248;2023-10-09T13:19:53;99914.13;;;13.92;75.67
63819;BME280;49970;54.976;73.248;2023-10-09T13:22:20;99912.84;;;13.87;76.38
63819;BME280;49970;54.976;73.248;2023-10-09T13:24:48;99908.50;;;13.76;76.92
63819;BME280;49970;54.976;73.248;2023-10-09T13:27:15;99918.16;;;13.77;77.19
63819;BME280;49970;54.976;73.248;2023-10-09T13:29:47;99912.69;;;13.69;77.66
63819;BME280;49970;54.976;73.248;2023-10-09T13:32:13;99912.13;;;13.65;78.10
63819;BME280;49970;54.976;73.248;2023-10-09T13:34:41;99912.56;;;13.61;78.25
63819;BME280;49970;54.976;73.248;2023-10-09T13:37:14;99924.88;;;13.62;78.30
63819;BME280;49970;54.976;73.248;2023-10-09T13:39:48;99911.16;;;13.57;78.15
63819;BME280;49970;54.976;73.248;2023-10-09T13:42:21;99931.59;;;13.56;78.27
63819;BME280;49970;54.976;73.248;2023-10-09T13:44:51;99921.09;;;13.55;78.57
63819;BME280;49970;54.976;73.248;2023-10-09T13:47:21;99921.09;;;13.55;78.57
63819;BME280;49970;54.976;73.248;2023-10-09T13:49:49;99925.56;;;13.54;78.27
63819;BME280;49970;54.976;73.248;2023-10-09T13:52:19;99928.22;;;13.54;78.34
63819;BME280;49970;54.976;73.248;2023-10-09T13:54:48;99931.84;;;13.53;78.51
63819;BME280;49970;54.976;73.248;2023-10-09T13:57:15;99936.34;;;13.53;78.35
63819;BME280;49970;54.976;73.248;2023-10-09T13:59:42;99931.16;;;13.51;77.99